Time;durP1;ratioP1;P1;durP2;ratioP2;P2;SDS_P1;SDS_P2;PMS_P1;PMS_P2;Temp;Humidity;BMP_temperature;BMP_pressure;BME280_temperature;BME280_humidity;BME280_pressure;Samples;Min_cycle;Max_cycle;Signal;HPM_P1;HPM_P2
2022/09/13 00:00:07;;;;;;;6.20;4.60;;;;;;;15.76;100.00;100277.66;682911;28;1468;-63
2022/09/13 00:00:28;;;;;;;5.78;4.55;;;;;;;15.77;100.00;100274.09;679813;28;1307;-64
2022/09/13 00:00:50;;;;;;;5.63;4.20;;;;;;;15.79;100.00;100270.53;680246;28;4448;-64
2022/09/13 00:01:10;;;;;;;5.88;4.10;;;;;;;15.78;100.00;100278.47;680811;28;1351;-66
2022/09/13 00:01:30;;;;;;;5.80;4.27;;;;;;;15.71;100.00;100275.16;680778;28;1314;-64
2022/09/13 00:01:51;;;;;;;6.07;4.35;;;;;;;15.74;100.00;100282.09;675189;29;1313;-65
2022/09/13 00:02:11;;;;;;;5.70;4.20;;;;;;;15.74;100.00;100279.47;673977;29;1090;-65
2022/09/13 00:02:32;;;;;;;6.18;4.53;;;;;;;15.75;100.00;100279.41;674066;29;1304;-64
2022/09/13 00:02:52;;;;;;;6.83;4.50;;;;;;;15.82;100.00;100282.75;673955;29;1050;-64
2022/09/13 00:03:12;;;;;;;6.68;4.40;;;;;;;15.87;100.00;100277.31;674652;29;1132;-64
2022/09/13 00:03:33;;;;;;;6.40;4.20;;;;;;;15.87;100.00;100293.13;674261;29;1357;-63
2022/09/13 00:03:54;;;;;;;5.63;4.10;;;;;;;15.91;100.00;100278.94;676443;29;4421;-64
2022/09/13 00:04:14;;;;;;;5.38;4.15;;;;;;;15.91;100.00;100279.81;679053;28;1295;-64
2022/09/13 00:04:34;;;;;;;5.43;4.20;;;;;;;15.91;100.00;100285.09;674397;29;1289;-65
2022/09/13 00:04:55;;;;;;;5.57;4.40;;;;;;;15.84;100.00;100283.59;677572;29;1165;-63
2022/09/13 00:05:15;;;;;;;5.80;4.47;;;;;;;15.78;100.00;100294.28;677393;29;939;-63
2022/09/13 00:05:37;;;;;;;6.00;4.47;;;;;;;15.79;100.00;100286.34;676503;29;1149;-63
2022/09/13 00:06:06;;;;;;;6.30;4.40;;;;;;;15.79;100.00;100288.09;679159;28;1192;-64
2022/09/13 00:06:26;;;;;;;6.43;4.35;;;;;;;15.83;100.00;100295.03;679038;28;2210;-63
2022/09/13 00:06:47;;;;;;;6.60;4.37;;;;;;;15.75;100.00;100294.38;681696;28;4287;-64
2022/09/13 00:07:07;;;;;;;6.47;4.70;;;;;;;15.71;100.00;100295.38;677640;28;1279;-66
2022/09/13 00:07:28;;;;;;;6.47;4.67;;;;;;;15.69;100.00;100290.16;679573;28;1221;-65
2022/09/13 00:07:48;;;;;;;7.10;4.43;;;;;;;15.72;100.00;100294.47;679391;28;1508;-63
2022/09/13 00:08:09;;;;;;;7.00;4.40;;;;;;;15.78;100.00;100294.28;676759;28;1307;-64
2022/09/13 00:08:29;;;;;;;6.05;4.50;;;;;;;15.83;100.00;100298.50;680336;28;1196;-64
2022/09/13 00:08:50;;;;;;;5.60;4.33;;;;;;;15.90;100.00;100293.91;679661;28;1057;-66
2022/09/13 00:09:10;;;;;;;5.15;4.28;;;;;;;15.92;100.00;100294.75;679112;28;1450;-63
2022/09/13 00:09:30;;;;;;;5.10;4.37;;;;;;;16.00;100.00;100299.75;679863;28;1358;-64
2022/09/13 00:09:51;;;;;;;5.20;4.23;;;;;;;16.02;100.00;100297.03;678254;28;5097;-65
2022/09/13 00:10:11;;;;;;;7.00;4.30;;;;;;;16.02;100.00;100304.97;682270;28;1178;-65
2022/09/13 00:10:37;;;;;;;6.07;4.27;;;;;;;16.00;100.00;100299.75;682356;28;1278;-65
2022/09/13 00:10:57;;;;;;;6.90;4.35;;;;;;;16.02;100.00;100302.31;682422;28;1271;-65
2022/09/13 00:11:22;;;;;;;5.30;4.10;;;;;;;16.05;100.00;100307.47;681414;28;1166;-65
2022/09/13 00:11:42;;;;;;;5.40;4.43;;;;;;;16.13;100.00;100300.19;681550;28;1286;-64
2022/09/13 00:12:03;;;;;;;6.13;4.30;;;;;;;16.18;100.00;100306.16;678944;28;1123;-64
2022/09/13 00:12:23;;;;;;;6.13;4.38;;;;;;;16.25;100.00;100305.03;679467;28;1204;-65
2022/09/13 00:12:44;;;;;;;6.30;4.30;;;;;;;16.33;100.00;100310.91;679869;28;4461;-64
2022/09/13 00:13:05;;;;;;;5.93;4.30;;;;;;;16.41;100.00;100309.81;676533;29;1363;-64
2022/09/13 00:13:26;;;;;;;5.25;4.20;;;;;;;16.42;100.00;100308.88;676154;29;1092;-64
2022/09/13 00:13:46;;;;;;;5.60;4.10;;;;;;;16.38;100.00;100310.78;674202;29;1384;-64
2022/09/13 00:14:07;;;;;;;5.63;4.10;;;;;;;16.31;100.00;100314.53;674423;29;1094;-64
2022/09/13 00:14:28;;;;;;;6.32;4.75;;;;;;;16.19;100.00;100307.91;674868;29;1327;-64
2022/09/13 00:14:48;;;;;;;6.30;4.40;;;;;;;16.10;100.00;100308.19;675077;29;1467;-63
2022/09/13 00:15:09;;;;;;;5.70;4.17;;;;;;;16.04;100.00;100303.16;676516;29;1261;-63
2022/09/13 00:15:30;;;;;;;6.18;4.63;;;;;;;16.00;100.00;100300.63;676855;29;1153;-65
2022/09/13 00:15:50;;;;;;;5.38;4.20;;;;;;;15.97;100.00;100303.34;676428;29;4900;-63
2022/09/13 00:16:12;;;;;;;6.00;4.10;;;;;;;15.92;100.00;100299.13;679907;28;3735;-65
2022/09/13 00:16:33;;;;;;;5.68;4.10;;;;;;;15.89;100.00;100297.44;682741;28;1078;-63
2022/09/13 00:16:54;;;;;;;7.05;4.47;;;;;;;15.86;100.00;100292.28;683026;28;1422;-65
2022/09/13 00:17:14;;;;;;;5.40;4.50;;;;;;;15.82;100.00;100295.94;681763;28;1039;-64
2022/09/13 00:17:34;;;;;;;6.30;4.55;;;;;;;15.79;100.00;100288.09;682365;28;1259;-66
2022/09/13 00:17:55;;;;;;;7.43;4.53;;;;;;;15.78;100.00;100289.00;677203;29;1232;-65
2022/09/13 00:18:17;;;;;;;7.90;4.55;;;;;;;15.75;100.00;100281.19;675687;29;1165;-64
2022/09/13 00:18:38;;;;;;;7.78;4.63;;;;;;;15.71;100.00;100288.34;676283;29;4302;-65
2022/09/13 00:18:58;;;;;;;6.95;4.50;;;;;;;15.65;100.00;100283.28;676780;29;1897;-64
2022/09/13 00:19:19;;;;;;;5.43;4.10;;;;;;;15.56;100.00;100279.16;677203;29;1397;-64
2022/09/13 00:19:39;;;;;;;5.30;4.35;;;;;;;15.65;100.00;100276.22;678012;28;1457;-66
2022/09/13 00:20:00;;;;;;;5.27;4.20;;;;;;;15.72;100.00;100283.94;679501;28;1299;-65
2022/09/13 00:20:21;;;;;;;5.15;4.40;;;;;;;15.66;100.00;100279.75;680628;28;1104;-64
2022/09/13 00:20:41;;;;;;;7.00;4.60;;;;;;;15.58;100.00;100277.34;678789;28;1393;-66
2022/09/13 00:21:07;;;;;;;7.07;4.40;;;;;;;15.57;100.00;100275.59;677116;29;1279;-64
2022/09/13 00:21:27;;;;;;;5.95;4.32;;;;;;;15.56;100.00;100279.16;676559;28;1447;-65
2022/09/13 00:21:48;;;;;;;5.78;4.40;;;;;;;15.57;100.00;100286.13;677395;28;4804;-65
2022/09/13 00:22:08;;;;;;;5.00;4.10;;;;;;;15.60;100.00;100274.66;679563;28;1458;-63
2022/09/13 00:22:29;;;;;;;5.78;4.40;;;;;;;15.61;100.00;100279.88;680341;28;1381;-64
2022/09/13 00:22:49;;;;;;;7.40;4.60;;;;;;;15.66;100.00;100280.59;682607;28;1046;-66
2022/09/13 00:23:15;;;;;;;6.32;4.38;;;;;;;15.66;100.00;100275.31;682011;28;1104;-65
2022/09/13 00:23:36;;;;;;;7.68;4.40;;;;;;;15.64;100.00;100271.00;681907;28;1248;-64
2022/09/13 00:23:57;;;;;;;6.40;4.53;;;;;;;15.67;100.00;100273.53;676907;29;1312;-65
2022/09/13 00:24:17;;;;;;;5.75;4.32;;;;;;;15.68;100.00;100272.63;676268;29;1081;-65
2022/09/13 00:24:38;;;;;;;6.20;4.40;;;;;;;15.60;100.00;100262.34;674746;29;4325;-65
2022/09/13 00:24:58;;;;;;;5.47;4.30;;;;;;;15.57;100.00;100265.06;673866;29;1400;-66
2022/09/13 00:25:19;;;;;;;6.35;4.30;;;;;;;15.55;100.00;100263.38;674543;29;1094;-67
2022/09/13 00:25:40;;;;;;;5.15;4.18;;;;;;;15.54;100.00;100264.31;677385;29;1220;-65
2022/09/13 00:26:10;;;;;;;5.27;4.23;;;;;;;15.47;100.00;100267.13;679852;29;1271;-65
2022/09/13 00:26:30;;;;;;;5.40;4.10;;;;;;;15.44;100.00;100251.44;677283;29;1270;-66
2022/09/13 00:26:50;;;;;;;5.47;4.22;;;;;;;15.47;100.00;100255.75;681156;28;1318;-65
2022/09/13 00:27:12;;;;;;;6.10;4.60;;;;;;;15.44;100.00;100253.22;682150;28;1356;-66
2022/09/13 00:27:33;;;;;;;6.22;4.25;;;;;;;15.45;100.00;100249.63;681994;28;1262;-66
2022/09/13 00:27:54;;;;;;;6.28;4.25;;;;;;;15.47;100.00;100253.94;681642;28;4248;-65
2022/09/13 00:28:14;;;;;;;5.60;4.25;;;;;;;15.42;100.00;100250.59;682688;28;1070;-66
2022/09/13 00:28:35;;;;;;;5.30;4.67;;;;;;;15.39;100.00;100249.84;682252;28;1608;-65
2022/09/13 00:28:57;;;;;;;6.07;4.80;;;;;;;15.29;100.00;100254.53;678253;29;1367;-65
2022/09/13 00:29:17;;;;;;;5.95;4.47;;;;;;;15.23;100.00;100259.97;677288;29;1054;-65
2022/09/13 00:29:38;;;;;;;7.27;4.70;;;;;;;15.19;100.00;100253.09;677627;29;1347;-65
2022/09/13 00:29:58;;;;;;;7.57;4.90;;;;;;;15.16;100.00;100246.16;677094;29;1240;-67
2022/09/13 00:30:19;;;;;;;6.10;4.63;;;;;;;15.17;100.00;100247.00;677623;29;1537;-65
2022/09/13 00:30:39;;;;;;;5.57;4.40;;;;;;;15.19;100.00;100247.81;678614;28;4326;-67
2022/09/13 00:31:06;;;;;;;6.33;4.77;;;;;;;15.18;100.00;100244.34;676728;29;1335;-64
2022/09/13 00:31:27;;;;;;;6.07;4.57;;;;;;;15.15;100.00;100245.28;674598;29;1228;-65
2022/09/13 00:31:48;;;;;;;6.32;4.53;;;;;;;15.14;100.00;100247.97;676468;29;1205;-66
2022/09/13 00:32:08;;;;;;;6.18;4.40;;;;;;;15.19;100.00;100240.81;674437;29;1422;-65
2022/09/13 00:32:28;;;;;;;7.80;4.50;;;;;;;15.21;100.00;100246.00;675748;29;1430;-66
2022/09/13 00:32:49;;;;;;;6.60;4.63;;;;;;;15.19;100.00;100239.91;674283;29;1457;-66
2022/09/13 00:33:09;;;;;;;7.27;4.77;;;;;;;15.21;100.00;100241.59;676943;28;1201;-67
2022/09/13 00:33:30;;;;;;;5.20;4.50;;;;;;;15.22;100.00;100240.69;680716;28;1047;-67
2022/09/13 00:33:50;;;;;;;5.60;4.47;;;;;;;15.28;100.00;100235.22;678661;28;4478;-66
2022/09/13 00:34:11;;;;;;;6.85;4.50;;;;;;;15.27;100.00;100245.81;682786;28;1381;-65
2022/09/13 00:34:31;;;;;;;6.27;4.40;;;;;;;15.22;100.00;100243.34;681978;28;1251;-66
2022/09/13 00:34:51;;;;;;;5.50;4.45;;;;;;;15.28;100.00;100248.41;681588;28;1247;-65
2022/09/13 00:35:12;;;;;;;5.27;4.30;;;;;;;15.39;100.00;100242.81;679886;28;1073;-65
2022/09/13 00:35:32;;;;;;;5.43;4.37;;;;;;;15.39;100.00;100239.31;680200;28;1235;-65
2022/09/13 00:35:53;;;;;;;5.90;4.53;;;;;;;15.34;100.00;100244.75;679916;28;1065;-66
2022/09/13 00:36:17;;;;;;;7.10;4.50;;;;;;;15.38;100.00;100240.22;676682;29;1057;-65
2022/09/13 00:36:37;;;;;;;6.38;4.40;;;;;;;15.42;100.00;100239.22;677016;29;4510;-66
2022/09/13 00:36:58;;;;;;;7.38;4.50;;;;;;;15.42;100.00;100244.47;677057;29;1279;-65
2022/09/13 00:37:18;;;;;;;5.80;4.40;;;;;;;15.41;100.00;100235.72;680202;28;1041;-66
2022/09/13 00:37:38;;;;;;;5.53;4.60;;;;;;;15.39;100.00;100234.03;681913;28;1251;-65
2022/09/13 00:38:00;;;;;;;5.67;4.37;;;;;;;15.39;100.00;100236.69;682166;28;1255;-66
2022/09/13 00:38:21;;;;;;;5.95;4.40;;;;;;;15.41;100.00;100234.84;681502;28;1362;-66
2022/09/13 00:38:42;;;;;;;6.63;4.50;;;;;;;15.47;100.00;100240.78;681317;28;4940;-64
2022/09/13 00:39:03;;;;;;;5.70;4.30;;;;;;;15.49;100.00;100241.63;679182;28;2058;-65
2022/09/13 00:39:23;;;;;;;5.43;4.20;;;;;;;15.49;100.00;100243.38;680195;28;1146;-64
2022/09/13 00:39:44;;;;;;;6.38;4.32;;;;;;;15.49;100.00;100251.28;678745;28;4524;-65
2022/09/13 00:40:05;;;;;;;7.07;4.40;;;;;;;15.59;100.00;100251.84;680312;28;1247;-66
2022/09/13 00:40:26;;;;;;;6.25;4.30;;;;;;;15.69;100.00;100252.41;684245;28;1036;-65
2022/09/13 00:40:46;;;;;;;5.68;4.40;;;;;;;15.75;100.00;100246.94;679184;28;1235;-65
2022/09/13 00:41:12;;;;;;;5.47;4.50;;;;;;;15.79;100.00;100251.19;674096;29;1457;-67
2022/09/13 00:41:32;;;;;;;5.30;4.55;;;;;;;15.80;100.00;100245.91;674301;29;1227;-65
2022/09/13 00:41:53;;;;;;;6.88;4.43;;;;;;;15.74;100.00;100254.00;675593;29;1328;-66
2022/09/13 00:42:14;;;;;;;8.77;4.60;;;;;;;15.63;100.00;100249.06;679103;28;1214;-67
2022/09/13 00:42:34;;;;;;;5.88;4.50;;;;;;;15.58;100.00;100250.13;678876;28;1167;-65
2022/09/13 00:42:55;;;;;;;5.97;4.53;;;;;;;15.55;100.00;100260.75;675729;29;5445;-65
2022/09/13 00:43:39;;;;;;;5.73;4.60;;;;;;;15.49;100.00;100253.91;676821;29;1083;-65
2022/09/13 00:44:01;;;;;;;5.90;4.40;;;;;;;15.47;100.00;100261.00;675426;29;1517;-65
2022/09/13 00:44:50;;;;;;;5.88;4.60;;;;;;;15.60;100.00;100261.47;676746;29;1277;-66
2022/09/13 00:45:10;;;;;;;6.15;4.35;;;;;;;15.65;100.00;100257.78;680424;28;1080;-65
2022/09/13 00:45:30;;;;;;;7.40;4.70;;;;;;;15.68;100.00;100263.88;682088;28;1089;-65
2022/09/13 00:45:51;;;;;;;7.70;4.83;;;;;;;15.69;100.00;100262.94;681025;28;4338;-65
2022/09/13 00:46:27;;;;;;;6.25;4.45;;;;;;;15.56;100.00;100251.94;683019;28;1197;-66
2022/09/13 00:46:49;;;;;;;6.30;4.57;;;;;;;15.46;100.00;100268.03;682375;28;1235;-65
2022/09/13 00:47:13;;;;;;;6.20;4.32;;;;;;;15.44;100.00;100261.97;681569;28;1381;-67
2022/09/13 00:47:39;;;;;;;5.93;4.30;;;;;;;15.47;100.00;100258.38;682375;28;1202;-65
2022/09/13 00:48:06;;;;;;;5.75;4.50;;;;;;;15.48;100.00;100260.97;682425;28;1239;-65
2022/09/13 00:48:26;;;;;;;6.25;4.80;;;;;;;15.50;100.00;100263.53;679189;28;1298;-64
2022/09/13 00:48:50;;;;;;;6.20;4.60;;;;;;;15.53;100.00;100252.03;679732;28;4410;-64
2022/09/13 00:49:22;;;;;;;6.35;4.65;;;;;;;15.52;100.00;100258.22;675607;29;1199;-65
2022/09/13 00:49:47;;;;;;;5.97;4.47;;;;;;;15.42;100.00;100255.88;675883;29;1078;-64
2022/09/13 00:50:34;;;;;;;5.68;4.20;;;;;;;15.38;100.00;100258.66;679023;28;1406;-66
2022/09/13 00:50:55;;;;;;;5.50;4.20;;;;;;;15.38;100.00;100262.16;681954;28;1299;-64
2022/09/13 00:51:15;;;;;;;5.72;4.53;;;;;;;15.37;100.00;100252.53;681900;28;1084;-66
2022/09/13 00:51:36;;;;;;;5.90;4.67;;;;;;;15.36;100.00;100260.50;681256;28;5292;-64
2022/09/13 00:52:02;;;;;;;5.35;4.30;;;;;;;15.38;100.00;100263.91;679664;29;1284;-64
2022/09/13 00:52:27;;;;;;;5.85;4.60;;;;;;;15.45;100.00;100254.91;675214;29;1234;-65
2022/09/13 00:52:57;;;;;;;5.50;4.25;;;;;;;15.60;100.00;100251.81;674052;29;1458;-66
2022/09/13 00:53:24;;;;;;;5.60;4.18;;;;;;;15.63;100.00;100258.72;674837;29;1335;-67
2022/09/13 00:53:49;;;;;;;5.82;4.40;;;;;;;15.53;100.00;100255.53;676571;29;1309;-65
2022/09/13 00:54:11;;;;;;;5.97;4.30;;;;;;;15.46;100.00;100264.53;677596;28;1466;-65
2022/09/13 00:54:44;;;;;;;6.60;4.20;;;;;;;15.42;100.00;100257.66;677017;29;1213;-67
2022/09/13 00:55:17;;;;;;;6.35;4.50;;;;;;;15.39;100.00;100261.22;678369;29;4764;-64
2022/09/13 00:56:23;;;;;;;4.97;4.07;;;;;;;15.38;100.00;100263.91;677364;29;1230;-65
2022/09/13 00:56:49;;;;;;;7.18;4.60;;;;;;;15.35;100.00;100258.75;679367;28;1125;-65
2022/09/13 00:57:11;;;;;;;5.55;4.43;;;;;;;15.35;100.00;100259.59;682095;28;1208;-66
2022/09/13 00:57:35;;;;;;;5.65;4.28;;;;;;;15.41;100.00;100261.19;682391;28;1131;-66
2022/09/13 00:58:01;;;;;;;5.50;4.30;;;;;;;15.53;100.00;100255.53;678353;28;7072;-66
2022/09/13 00:58:26;;;;;;;5.95;4.45;;;;;;;15.51;100.00;100254.72;677691;28;1045;-65
2022/09/13 00:58:57;;;;;;;6.30;4.40;;;;;;;15.43;100.00;100254.13;680787;28;1906;-65
2022/09/13 00:59:29;;;;;;;5.40;4.38;;;;;;;15.37;100.00;100259.56;680113;28;1129;-64
2022/09/13 00:59:57;;;;;;;5.20;3.90;;;;;;;15.41;100.00;100255.91;680173;28;1140;-66
2022/09/13 01:00:18;;;;;;;5.65;4.20;;;;;;;15.45;100.00;100260.19;684223;28;1227;-65
2022/09/13 01:00:39;;;;;;;6.88;4.20;;;;;;;15.48;100.00;100254.84;680919;28;4302;-64
2022/09/13 01:01:02;;;;;;;6.45;4.22;;;;;;;15.45;100.00;100262.81;680484;28;1116;-65
2022/09/13 01:01:27;;;;;;;5.70;4.30;;;;;;;15.38;100.00;100263.91;681968;28;1036;-64
2022/09/13 01:01:53;;;;;;;5.20;4.30;;;;;;;15.35;100.00;100264.03;680365;28;1354;-64
2022/09/13 01:02:15;;;;;;;6.30;4.57;;;;;;;15.33;100.00;100256.16;676953;28;1894;-66
2022/09/13 01:02:36;;;;;;;5.97;4.50;;;;;;;15.34;100.00;100268.44;678805;28;2001;-64
2022/09/13 01:03:04;;;;;;;6.07;4.38;;;;;;;15.30;100.00;100259.75;677447;28;1435;-65
2022/09/13 01:03:27;;;;;;;7.22;4.60;;;;;;;15.24;100.00;100259.94;678878;28;1176;-65
2022/09/13 01:03:48;;;;;;;5.97;4.40;;;;;;;15.24;100.00;100265.19;677876;28;4309;-66
2022/09/13 01:04:09;;;;;;;5.80;4.22;;;;;;;15.28;100.00;100255.44;680776;28;1308;-65
2022/09/13 01:04:32;;;;;;;6.17;4.20;;;;;;;15.33;100.00;100262.28;679472;28;1264;-66
2022/09/13 01:04:53;;;;;;;5.63;4.38;;;;;;;15.38;100.00;100264.81;679165;28;1116;-65
2022/09/13 01:05:17;;;;;;;5.70;4.32;;;;;;;15.32;100.00;100259.72;677893;28;1021;-64
2022/09/13 01:05:44;;;;;;;5.40;4.10;;;;;;;15.25;100.00;100256.41;674576;29;1675;-66
2022/09/13 01:06:10;;;;;;;6.85;4.60;;;;;;;15.20;100.00;100255.66;673162;29;1325;-65
2022/09/13 01:06:34;;;;;;;6.50;4.50;;;;;;;15.20;100.00;100255.66;676718;29;1019;-64
2022/09/13 01:07:00;;;;;;;5.57;4.30;;;;;;;15.27;100.00;100262.50;677576;29;4249;-65
2022/09/13 01:07:20;;;;;;;6.05;4.30;;;;;;;15.28;100.00;100260.72;678264;28;1226;-66
2022/09/13 01:07:40;;;;;;;6.65;4.47;;;;;;;15.26;100.00;100255.50;682185;28;1069;-66
2022/09/13 01:08:02;;;;;;;5.97;4.40;;;;;;;15.25;100.00;100255.53;681285;28;1075;-64
2022/09/13 01:08:23;;;;;;;5.60;4.40;;;;;;;15.24;100.00;100257.28;682226;28;1183;-65
2022/09/13 01:08:48;;;;;;;5.65;4.45;;;;;;;15.23;100.00;100254.72;681503;28;1136;-64
2022/09/13 01:09:11;;;;;;;5.63;4.63;;;;;;;15.25;100.00;100259.03;682012;28;1342;-64
2022/09/13 01:09:35;;;;;;;6.20;4.68;;;;;;;15.27;100.00;100265.13;679567;28;1179;-67
2022/09/13 01:09:56;;;;;;;6.13;4.43;;;;;;;15.27;100.00;100259.84;676041;29;6190;-65
2022/09/13 01:10:16;;;;;;;5.30;4.28;;;;;;;15.27;100.00;100257.22;676558;29;1167;-65
2022/09/13 01:10:39;;;;;;;5.95;4.38;;;;;;;15.26;100.00;100259.91;678475;29;1221;-65
2022/09/13 01:11:01;;;;;;;5.90;4.47;;;;;;;15.27;100.00;100254.59;680032;28;1247;-65
2022/09/13 01:11:28;;;;;;;6.03;4.35;;;;;;;15.33;100.00;100258.81;676797;29;1260;-63
2022/09/13 01:11:54;;;;;;;5.35;4.40;;;;;;;15.35;100.00;100259.59;676302;29;2170;-63
2022/09/13 01:13:13;;;;;;;5.80;4.40;;;;;;;15.45;100.00;100257.53;674477;29;1263;-64
2022/09/13 01:13:35;;;;;;;5.82;4.35;;;;;;;15.50;100.00;100256.50;670985;29;5207;-64
2022/09/13 01:13:57;;;;;;;5.35;4.40;;;;;;;15.48;100.00;100258.31;668948;29;1612;-65
2022/09/13 01:14:19;;;;;;;5.47;4.50;;;;;;;15.43;100.00;100257.59;668419;29;1087;-63
2022/09/13 01:14:40;;;;;;;5.57;4.50;;;;;;;15.42;100.00;100265.56;665071;29;1190;-65
2022/09/13 01:15:03;;;;;;;6.07;4.35;;;;;;;15.39;100.00;100265.66;666201;29;1245;-64
2022/09/13 01:15:24;;;;;;;6.20;4.45;;;;;;;15.34;100.00;100260.53;664937;29;1202;-63
2022/09/13 01:15:45;;;;;;;6.57;4.70;;;;;;;15.30;100.00;100262.41;669240;29;1297;-65
2022/09/13 01:16:05;;;;;;;5.60;4.57;;;;;;;15.30;100.00;100257.13;677046;28;1584;-66
2022/09/13 01:16:26;;;;;;;6.30;4.60;;;;;;;15.31;100.00;100258.84;680961;28;1112;-63
2022/09/13 01:16:47;;;;;;;6.80;4.70;;;;;;;15.33;100.00;100261.44;684487;28;1453;-65
2022/09/13 01:17:08;;;;;;;5.53;4.53;;;;;;;15.33;100.00;100256.16;682295;28;1288;-64
2022/09/13 01:17:30;;;;;;;6.55;4.63;;;;;;;15.28;100.00;100261.56;682216;28;1410;-65
2022/09/13 01:17:53;;;;;;;6.43;4.32;;;;;;;15.28;100.00;100258.94;680947;28;1500;-65
2022/09/13 01:18:14;;;;;;;6.45;4.63;;;;;;;15.30;100.00;100267.66;678953;28;1244;-65
2022/09/13 01:18:34;;;;;;;5.63;4.80;;;;;;;15.26;100.00;100260.75;678740;29;1173;-65
2022/09/13 01:18:54;;;;;;;5.60;4.57;;;;;;;15.23;100.00;100265.25;678993;28;4177;-64
2022/09/13 01:19:16;;;;;;;5.30;4.20;;;;;;;15.18;100.00;100262.75;679595;28;1486;-63
2022/09/13 01:19:36;;;;;;;5.40;4.57;;;;;;;15.13;100.00;100265.53;683836;28;1335;-63
2022/09/13 01:19:58;;;;;;;5.50;4.57;;;;;;;15.13;100.00;100264.66;684431;28;1124;-64
2022/09/13 01:20:27;;;;;;;5.68;4.47;;;;;;;15.21;100.00;100265.28;681302;28;1511;-63
2022/09/13 01:21:06;;;;;;;5.82;4.22;;;;;;;15.26;100.00;100259.91;680076;28;1286;-65
2022/09/13 01:21:44;;;;;;;6.43;4.38;;;;;;;15.20;100.00;100266.19;680133;28;1502;-64
2022/09/13 01:22:27;;;;;;;5.88;4.50;;;;;;;15.16;100.00;100267.22;681055;28;6036;-64
2022/09/13 01:22:50;;;;;;;7.05;4.50;;;;;;;15.22;100.00;100264.41;683559;28;1143;-63
2022/09/13 01:23:46;;;;;;;6.82;4.30;;;;;;;15.31;100.00;100257.97;681772;28;1083;-65
2022/09/13 01:24:40;;;;;;;7.60;4.38;;;;;;;15.20;100.00;100262.72;679425;28;1399;-65
2022/09/13 01:25:16;;;;;;;5.40;4.40;;;;;;;15.25;100.00;100264.28;679327;28;5073;-64
2022/09/13 01:25:54;;;;;;;6.47;4.50;;;;;;;15.28;100.00;100264.19;683414;28;1349;-64
2022/09/13 01:26:33;;;;;;;5.88;4.53;;;;;;;15.25;100.00;100260.81;682368;28;1120;-64
2022/09/13 01:27:23;;;;;;;5.78;4.40;;;;;;;15.25;100.00;100264.28;678754;29;1180;-64
2022/09/13 01:27:53;;;;;;;6.18;4.60;;;;;;;15.19;100.00;100264.50;678397;28;4468;-64
2022/09/13 01:28:46;;;;;;;5.90;4.72;;;;;;;15.19;100.00;100266.25;678761;28;943;-64
2022/09/13 01:30:00;;;;;;;6.53;4.47;;;;;;;15.09;100.00;100266.53;672630;29;1328;-63
2022/09/13 01:30:50;;;;;;;5.78;4.50;;;;;;;15.11;100.00;100261.22;673529;29;1126;-64
2022/09/13 01:31:51;;;;;;;6.22;4.90;;;;;;;15.06;100.00;100257.88;667878;29;4862;-64
2022/09/13 01:32:32;;;;;;;6.20;4.50;;;;;;;15.13;100.00;100259.41;669527;29;1616;-64
2022/09/13 01:33:16;;;;;;;5.47;4.30;;;;;;;15.16;100.00;100259.34;674355;29;1182;-65
2022/09/13 01:33:49;;;;;;;5.70;4.38;;;;;;;15.21;100.00;100257.41;679596;28;4294;-64
2022/09/13 01:34:41;;;;;;;7.13;4.63;;;;;;;15.17;100.00;100265.44;678847;28;1542;-65
2022/09/13 01:35:26;;;;;;;5.72;4.30;;;;;;;15.10;100.00;100256.88;682075;28;1119;-66
2022/09/13 01:35:59;;;;;;;6.25;4.57;;;;;;;15.09;100.00;100249.88;678215;29;1248;-64
2022/09/13 01:36:36;;;;;;;5.95;4.47;;;;;;;15.12;100.00;100252.44;678092;28;1145;-63
2022/09/13 01:37:03;;;;;;;6.18;4.50;;;;;;;15.03;100.00;100252.69;675914;29;6029;-63
2022/09/13 01:37:48;;;;;;;7.10;4.60;;;;;;;15.02;100.00;100257.06;676793;29;1451;-64
2022/09/13 01:38:26;;;;;;;6.03;4.38;;;;;;;15.03;100.00;100247.44;676822;28;1608;-63
2022/09/13 01:39:04;;;;;;;6.13;4.70;;;;;;;15.04;100.00;100249.16;678846;28;4932;-64
2022/09/13 01:39:45;;;;;;;6.18;4.38;;;;;;;15.06;100.00;100250.81;679603;28;1104;-63
2022/09/13 01:40:31;;;;;;;5.55;4.40;;;;;;;15.03;100.00;100253.53;681845;28;5156;-64
2022/09/13 01:41:26;;;;;;;6.35;4.50;;;;;;;15.02;100.00;100250.97;681144;28;1183;-64
2022/09/13 01:42:28;;;;;;;6.00;4.55;;;;;;;15.01;100.00;100254.50;679593;28;1467;-63
2022/09/13 01:43:21;;;;;;;6.00;4.57;;;;;;;15.00;100.00;100247.53;680999;28;4897;-63
2022/09/13 01:43:56;;;;;;;7.57;4.68;;;;;;;15.04;100.00;100250.00;680921;28;1332;-64
2022/09/13 01:44:38;;;;;;;5.63;4.47;;;;;;;15.11;100.00;100250.69;682030;28;1120;-64
2022/09/13 01:45:02;;;;;;;6.50;4.43;;;;;;;15.13;100.00;100254.13;682469;28;1136;-63
2022/09/13 01:45:38;;;;;;;6.50;4.25;;;;;;;15.18;100.00;100246.97;678844;28;1449;-65
2022/09/13 01:46:06;;;;;;;6.50;4.47;;;;;;;15.27;100.00;100249.31;678820;29;5013;-64
2022/09/13 01:47:01;;;;;;;5.85;4.55;;;;;;;15.26;100.00;100252.00;676696;29;1228;-64
2022/09/13 01:47:56;;;;;;;6.53;4.50;;;;;;;15.17;100.00;100250.50;676045;29;1065;-65
2022/09/13 01:48:31;;;;;;;6.18;4.40;;;;;;;15.14;100.00;100247.97;676756;28;1152;-64
2022/09/13 01:48:58;;;;;;;5.75;4.45;;;;;;;15.10;100.00;100243.69;677216;28;4469;-65
2022/09/13 01:49:29;;;;;;;5.35;4.57;;;;;;;15.07;100.00;100241.16;678671;28;1571;-63
2022/09/13 01:49:58;;;;;;;5.85;4.50;;;;;;;15.07;100.00;100243.81;677657;28;1403;-64
2022/09/13 01:50:21;;;;;;;6.35;4.55;;;;;;;15.07;100.00;100244.66;680196;28;1075;-64
2022/09/13 01:50:46;;;;;;;5.55;4.45;;;;;;;15.10;100.00;100238.44;681147;28;1255;-65
2022/09/13 01:51:22;;;;;;;5.30;4.30;;;;;;;15.12;100.00;100249.81;680191;28;1522;-65
2022/09/13 01:52:11;;;;;;;6.70;4.60;;;;;;;15.08;100.00;100248.16;678374;28;5240;-65
2022/09/13 01:52:56;;;;;;;5.68;4.32;;;;;;;15.05;100.00;100248.22;674761;29;1318;-64
2022/09/13 01:53:43;;;;;;;6.70;4.35;;;;;;;14.93;100.00;100238.94;679502;28;1532;-65
2022/09/13 01:54:13;;;;;;;5.88;4.60;;;;;;;14.89;100.00;100248.69;681545;28;1163;-64
2022/09/13 01:54:37;;;;;;;7.47;4.53;;;;;;;14.87;100.00;100240.00;682850;28;1342;-65
2022/09/13 01:55:32;;;;;;;7.40;4.55;;;;;;;14.96;100.00;100241.47;682139;28;5818;-63
2022/09/13 01:56:31;;;;;;;6.57;4.55;;;;;;;14.97;100.00;100243.22;678613;29;1324;-65
2022/09/13 01:57:05;;;;;;;5.40;4.28;;;;;;;14.96;100.00;100239.69;668945;29;1432;-64
2022/09/13 01:57:38;;;;;;;5.85;4.55;;;;;;;14.89;100.00;100232.06;672887;29;1109;-64
2022/09/13 01:58:25;;;;;;;5.90;4.45;;;;;;;14.95;100.00;100243.25;675821;29;4792;-65
2022/09/13 01:58:54;;;;;;;5.22;4.55;;;;;;;14.91;100.00;100239.00;676824;29;1399;-64
2022/09/13 01:59:40;;;;;;;6.38;4.40;;;;;;;14.87;100.00;100236.47;677324;29;1100;-65
2022/09/13 02:00:10;;;;;;;5.78;4.30;;;;;;;14.90;100.00;100233.78;681399;28;1064;-65
2022/09/13 02:00:52;;;;;;;6.80;4.68;;;;;;;14.88;100.00;100228.53;681773;28;1324;-64
2022/09/13 02:01:18;;;;;;;7.00;4.85;;;;;;;14.98;100.00;100237.91;681890;28;4791;-64
2022/09/13 02:01:51;;;;;;;6.57;3.97;;;;;;;14.99;100.00;100230.84;681356;28;1065;-66
2022/09/13 02:02:19;;;;;;;6.10;4.50;;;;;;;15.00;100.00;100239.63;682554;28;1390;-66
2022/09/13 02:02:45;;;;;;;5.82;4.40;;;;;;;14.99;100.00;100241.38;682977;28;1452;-64
2022/09/13 02:03:17;;;;;;;6.43;4.40;;;;;;;15.05;100.00;100235.97;683383;28;1273;-67
2022/09/13 02:03:43;;;;;;;5.40;4.35;;;;;;;15.05;100.00;100241.22;679377;28;4364;-64
2022/09/13 02:04:09;;;;;;;7.43;4.65;;;;;;;15.00;100.00;100235.22;678178;28;1275;-65
2022/09/13 02:04:41;;;;;;;7.43;4.60;;;;;;;15.01;100.00;100238.69;674554;29;1415;-67
2022/09/13 02:05:10;;;;;;;7.38;4.78;;;;;;;15.04;100.00;100236.00;676046;29;1257;-64
2022/09/13 02:05:53;;;;;;;5.68;4.50;;;;;;;15.06;100.00;100236.81;678168;29;1215;-66
2022/09/13 02:06:19;;;;;;;7.10;4.60;;;;;;;15.02;100.00;100229.91;678984;28;1120;-65
2022/09/13 02:06:45;;;;;;;5.63;4.40;;;;;;;14.97;100.00;100233.53;680797;28;4300;-66
2022/09/13 02:07:29;;;;;;;5.95;4.45;;;;;;;14.96;100.00;100225.69;677182;29;1571;-66